Aguilares, Argentina
Current Conditions -  °F | °C
As of 9:00 AM on Wednesday 22 Oct 2014 (Local Time) from SANT Reporting Station
Clear Clear  
Wind Chill: 75°   Ceiling: Unl
Heat Index: 75°   Visibility: 4mi
Dew Point: 63°   Wind: 5mph
Humidity: 65%   Direction: 230°SW
Pressure: 29.94"   Gusts: NA
Location:  27.43°S, 65.62°W
Report Text: SANT 221200Z 23004KT 7000 NSC 24/17 Q1014
Loading
Personal Weather Stations






























Interactive Weather Map
Tropical Storm Tracking
New forecast layout! Learn more

10-Day Weather Forecast

Advertisements
Track Severe Weather on mobile